sensor_id;sensor_type;location;lat;lon;timestamp;pressure;altitude;pressure_sealevel;temperature;humidity
6433;BME280;3249;42.690;23.260;2023-02-23T00:02:23;94205.25;;;4.37;100.00
6433;BME280;3249;42.690;23.260;2023-02-23T00:04:52;94202.84;;;4.50;100.00
6433;BME280;3249;42.690;23.260;2023-02-23T00:07:22;94207.34;;;4.69;100.00
6433;BME280;3249;42.690;23.260;2023-02-23T00:09:51;94206.59;;;4.75;100.00
6433;BME280;3249;42.690;23.260;2023-02-23T00:12:21;94207.50;;;4.89;100.00
6433;BME280;3249;42.690;23.260;2023-02-23T00:14:51;94207.88;;;4.65;100.00
6433;BME280;3249;42.690;23.260;2023-02-23T00:17:23;94209.31;;;4.32;100.00
6433;BME280;3249;42.690;23.260;2023-02-23T00:19:52;94205.22;;;4.52;100.00
6433;BME280;3249;42.690;23.260;2023-02-23T00:22:23;94206.13;;;4.65;100.00
6433;BME280;3249;42.690;23.260;2023-02-23T00:24:52;94212.97;;;4.86;100.00
6433;BME280;3249;42.690;23.260;2023-02-23T00:27:22;94210.81;;;4.83;100.00
6433;BME280;3249;42.690;23.260;2023-02-23T00:29:51;94216.38;;;4.72;100.00
6433;BME280;3249;42.690;23.260;2023-02-23T00:32:23;94204.41;;;4.72;100.00
6433;BME280;3249;42.690;23.260;2023-02-23T00:34:52;94217.13;;;4.87;100.00
6433;BME280;3249;42.690;23.260;2023-02-23T00:37:23;94217.34;;;4.92;100.00
6433;BME280;3249;42.690;23.260;2023-02-23T00:39:54;94213.81;;;4.93;100.00
6433;BME280;3249;42.690;23.260;2023-02-23T00:42:26;94213.63;;;4.94;100.00
6433;BME280;3249;42.690;23.260;2023-02-23T00:45:00;94215.03;;;4.97;100.00
6433;BME280;3249;42.690;23.260;2023-02-23T00:47:36;94208.31;;;4.89;100.00
6433;BME280;3249;42.690;23.260;2023-02-23T00:50:09;94212.00;;;4.87;100.00
6433;BME280;3249;42.690;23.260;2023-02-23T00:52:41;94150.66;;;4.46;100.00
6433;BME280;3249;42.690;23.260;2023-02-23T00:55:12;94212.59;;;4.89;100.00
6433;BME280;3249;42.690;23.260;2023-02-23T00:57:41;94212.19;;;4.85;100.00
6433;BME280;3249;42.690;23.260;2023-02-23T01:00:11;94208.72;;;4.51;100.00
6433;BME280;3249;42.690;23.260;2023-02-23T01:02:47;94172.56;;;4.41;100.00
6433;BME280;3249;42.690;23.260;2023-02-23T01:05:16;94207.75;;;4.73;100.00
6433;BME280;3249;42.690;23.260;2023-02-23T01:07:46;94210.53;;;4.78;100.00
6433;BME280;3249;42.690;23.260;2023-02-23T01:10:15;94205.72;;;4.83;100.00
6433;BME280;3249;42.690;23.260;2023-02-23T01:12:49;94211.56;;;5.04;100.00
6433;BME280;3249;42.690;23.260;2023-02-23T01:15:20;94207.31;;;5.12;100.00
6433;BME280;3249;42.690;23.260;2023-02-23T01:17:52;94206.13;;;5.14;100.00
6433;BME280;3249;42.690;23.260;2023-02-23T01:20:21;94210.84;;;5.11;100.00
6433;BME280;3249;42.690;23.260;2023-02-23T01:22:50;94178.06;;;4.86;100.00
6433;BME280;3249;42.690;23.260;2023-02-23T01:25:19;94213.38;;;5.11;100.00
6433;BME280;3249;42.690;23.260;2023-02-23T01:27:49;94212.44;;;4.69;100.00
6433;BME280;3249;42.690;23.260;2023-02-23T01:30:19;94199.47;;;4.29;100.00
6433;BME280;3249;42.690;23.260;2023-02-23T01:32:48;94198.03;;;4.05;100.00
6433;BME280;3249;42.690;23.260;2023-02-23T01:35:23;94197.06;;;4.06;100.00
6433;BME280;3249;42.690;23.260;2023-02-23T01:37:52;94202.19;;;4.27;100.00
6433;BME280;3249;42.690;23.260;2023-02-23T01:40:23;94207.06;;;4.43;100.00
6433;BME280;3249;42.690;23.260;2023-02-23T01:42:58;94206.97;;;4.51;100.00
6433;BME280;3249;42.690;23.260;2023-02-23T01:45:31;94206.44;;;4.56;100.00
6433;BME280;3249;42.690;23.260;2023-02-23T01:48:06;94197.41;;;4.39;100.00
6433;BME280;3249;42.690;23.260;2023-02-23T01:50:48;94203.88;;;4.56;100.00
6433;BME280;3249;42.690;23.260;2023-02-23T01:53:20;94197.28;;;4.47;100.00
6433;BME280;3249;42.690;23.260;2023-02-23T01:55:53;94210.00;;;4.61;100.00
6433;BME280;3249;42.690;23.260;2023-02-23T01:58:25;94203.31;;;4.39;100.00
6433;BME280;3249;42.690;23.260;2023-02-23T02:00:57;94199.25;;;4.45;100.00
6433;BME280;3249;42.690;23.260;2023-02-23T02:03:32;94203.25;;;4.54;100.00
6433;BME280;3249;42.690;23.260;2023-02-23T02:06:06;94199.56;;;4.56;100.00
6433;BME280;3249;42.690;23.260;2023-02-23T02:08:37;94191.31;;;4.54;100.00
6433;BME280;3249;42.690;23.260;2023-02-23T02:11:10;94148.69;;;4.27;100.00
6433;BME280;3249;42.690;23.260;2023-02-23T02:13:52;94194.56;;;4.48;100.00
6433;BME280;3249;42.690;23.260;2023-02-23T02:16:40;94188.41;;;4.57;100.00
6433;BME280;3249;42.690;23.260;2023-02-23T02:19:50;94156.34;;;4.48;100.00
6433;BME280;3249;42.690;23.260;2023-02-23T02:25:49;94187.78;;;4.34;100.00
6433;BME280;3249;42.690;23.260;2023-02-23T02:28:34;94188.72;;;3.98;100.00
6433;BME280;3249;42.690;23.260;2023-02-23T02:31:28;94190.13;;;4.00;100.00
6433;BME280;3249;42.690;23.260;2023-02-23T02:34:22;94192.00;;;4.27;100.00
6433;BME280;3249;42.690;23.260;2023-02-23T02:37:16;94185.09;;;4.07;100.00
6433;BME280;3249;42.690;23.260;2023-02-23T02:39:55;94193.44;;;4.15;100.00
6433;BME280;3249;42.690;23.260;2023-02-23T02:42:50;94170.03;;;3.91;100.00
6433;BME280;3249;42.690;23.260;2023-02-23T02:45:25;94189.19;;;4.01;100.00
6433;BME280;3249;42.690;23.260;2023-02-23T02:47:59;94190.91;;;4.15;100.00
6433;BME280;3249;42.690;23.260;2023-02-23T02:50:37;94188.69;;;4.12;100.00
6433;BME280;3249;42.690;23.260;2023-02-23T02:53:17;94148.81;;;3.84;100.00
6433;BME280;3249;42.690;23.260;2023-02-23T02:55:50;94186.31;;;3.75;100.00
6433;BME280;3249;42.690;23.260;2023-02-23T02:58:21;94190.97;;;3.72;100.00
6433;BME280;3249;42.690;23.260;2023-02-23T03:00:52;94177.63;;;3.70;100.00
6433;BME280;3249;42.690;23.260;2023-02-23T03:03:36;94183.25;;;3.80;100.00
6433;BME280;3249;42.690;23.260;2023-02-23T03:06:19;94189.47;;;3.92;100.00
6433;BME280;3249;42.690;23.260;2023-02-23T03:09:13;94185.69;;;3.59;100.00
6433;BME280;3249;42.690;23.260;2023-02-23T03:12:05;94180.97;;;3.56;100.00
6433;BME280;3249;42.690;23.260;2023-02-23T03:14:53;94182.72;;;3.70;100.00
6433;BME280;3249;42.690;23.260;2023-02-23T03:17:42;94185.25;;;3.70;100.00
6433;BME280;3249;42.690;23.260;2023-02-23T03:20:33;94192.00;;;3.77;100.00
6433;BME280;3249;42.690;23.260;2023-02-23T03:23:20;94192.34;;;3.89;100.00
6433;BME280;3249;42.690;23.260;2023-02-23T03:26:10;94169.00;;;3.71;100.00
6433;BME280;3249;42.690;23.260;2023-02-23T03:29:00;94206.38;;;3.99;100.00
6433;BME280;3249;42.690;23.260;2023-02-23T03:31:48;94201.34;;;4.06;100.00
6433;BME280;3249;42.690;23.260;2023-02-23T03:34:38;94206.34;;;3.64;100.00
6433;BME280;3249;42.690;23.260;2023-02-23T03:37:28;94207.34;;;3.40;100.00
6433;BME280;3249;42.690;23.260;2023-02-23T03:40:17;94208.75;;;3.28;100.00
6433;BME280;3249;42.690;23.260;2023-02-23T03:43:04;94205.69;;;3.18;100.00
6433;BME280;3249;42.690;23.260;2023-02-23T03:45:47;94209.00;;;3.19;100.00
6433;BME280;3249;42.690;23.260;2023-02-23T03:48:32;94211.09;;;3.15;100.00
6433;BME280;3249;42.690;23.260;2023-02-23T03:51:17;94194.22;;;3.00;100.00
6433;BME280;3249;42.690;23.260;2023-02-23T03:54:02;94215.88;;;2.96;100.00
6433;BME280;3249;42.690;23.260;2023-02-23T03:56:50;94221.59;;;2.98;100.00
6433;BME280;3249;42.690;23.260;2023-02-23T03:59:37;94222.94;;;2.86;100.00
6433;BME280;3249;42.690;23.260;2023-02-23T04:02:20;94203.47;;;2.56;100.00
6433;BME280;3249;42.690;23.260;2023-02-23T04:05:07;94216.63;;;2.82;100.00
6433;BME280;3249;42.690;23.260;2023-02-23T04:07:51;94210.03;;;2.73;100.00
6433;BME280;3249;42.690;23.260;2023-02-23T04:10:34;94218.25;;;2.75;100.00
6433;BME280;3249;42.690;23.260;2023-02-23T04:13:23;94216.25;;;2.70;100.00
6433;BME280;3249;42.690;23.260;2023-02-23T04:15:56;94184.13;;;2.32;100.00
6433;BME280;3249;42.690;23.260;2023-02-23T04:18:26;94214.22;;;2.66;100.00
6433;BME280;3249;42.690;23.260;2023-02-23T04:20:56;94213.06;;;2.68;100.00
6433;BME280;3249;42.690;23.260;2023-02-23T04:23:25;94206.59;;;2.66;100.00
6433;BME280;3249;42.690;23.260;2023-02-23T04:25:55;94211.84;;;2.64;100.00
6433;BME280;3249;42.690;23.260;2023-02-23T04:28:25;94208.09;;;2.75;100.00
6433;BME280;3249;42.690;23.260;2023-02-23T04:30:57;94182.69;;;2.75;100.00
6433;BME280;3249;42.690;23.260;2023-02-23T04:33:27;94209.94;;;3.03;100.00
6433;BME280;3249;42.690;23.260;2023-02-23T04:35:55;94209.88;;;3.11;100.00
6433;BME280;3249;42.690;23.260;2023-02-23T04:38:24;94204.72;;;3.19;100.00
6433;BME280;3249;42.690;23.260;2023-02-23T04:40:53;94216.94;;;3.01;100.00
6433;BME280;3249;42.690;23.260;2023-02-23T04:43:22;94212.78;;;2.86;100.00
6433;BME280;3249;42.690;23.260;2023-02-23T04:45:51;94220.47;;;2.78;100.00
6433;BME280;3249;42.690;23.260;2023-02-23T04:48:22;94215.22;;;2.79;100.00
6433;BME280;3249;42.690;23.260;2023-02-23T04:50:52;94216.84;;;2.95;100.00
6433;BME280;3249;42.690;23.260;2023-02-23T04:53:21;94214.22;;;3.03;100.00
6433;BME280;3249;42.690;23.260;2023-02-23T04:55:51;94214.13;;;2.96;100.00
6433;BME280;3249;42.690;23.260;2023-02-23T04:58:20;94216.97;;;2.79;100.00
6433;BME280;3249;42.690;23.260;2023-02-23T05:00:49;94212.69;;;2.79;100.00
6433;BME280;3249;42.690;23.260;2023-02-23T05:03:18;94209.84;;;2.97;100.00
6433;BME280;3249;42.690;23.260;2023-02-23T05:05:49;94219.94;;;3.05;100.00
6433;BME280;3249;42.690;23.260;2023-02-23T05:08:19;94214.50;;;3.08;100.00
6433;BME280;3249;42.690;23.260;2023-02-23T05:10:48;94210.44;;;2.99;100.00
6433;BME280;3249;42.690;23.260;2023-02-23T05:13:19;94221.09;;;3.17;100.00
6433;BME280;3249;42.690;23.260;2023-02-23T05:15:48;94213.66;;;3.15;100.00
6433;BME280;3249;42.690;23.260;2023-02-23T05:18:17;94215.41;;;2.78;100.00
6433;BME280;3249;42.690;23.260;2023-02-23T05:20:49;94217.84;;;3.08;100.00
6433;BME280;3249;42.690;23.260;2023-02-23T05:23:18;94224.25;;;3.19;100.00
6433;BME280;3249;42.690;23.260;2023-02-23T05:25:47;94226.97;;;3.17;100.00
6433;BME280;3249;42.690;23.260;2023-02-23T05:28:16;94232.06;;;3.17;100.00
6433;BME280;3249;42.690;23.260;2023-02-23T05:30:45;94231.25;;;3.02;100.00
6433;BME280;3249;42.690;23.260;2023-02-23T05:33:17;94234.63;;;2.95;100.00
6433;BME280;3249;42.690;23.260;2023-02-23T05:35:49;94206.19;;;2.77;100.00
6433;BME280;3249;42.690;23.260;2023-02-23T05:38:18;94237.13;;;3.17;100.00
6433;BME280;3249;42.690;23.260;2023-02-23T05:40:47;94227.13;;;3.16;100.00
6433;BME280;3249;42.690;23.260;2023-02-23T05:43:16;94242.78;;;3.27;100.00
6433;BME280;3249;42.690;23.260;2023-02-23T05:45:46;94251.28;;;2.97;100.00
6433;BME280;3249;42.690;23.260;2023-02-23T05:48:15;94254.69;;;2.90;100.00
6433;BME280;3249;42.690;23.260;2023-02-23T05:50:44;94243.94;;;2.80;100.00
6433;BME280;3249;42.690;23.260;2023-02-23T05:53:16;94259.16;;;3.10;100.00
6433;BME280;3249;42.690;23.260;2023-02-23T05:55:45;94261.66;;;3.33;100.00
6433;BME280;3249;42.690;23.260;2023-02-23T05:58:15;94245.50;;;3.26;100.00
6433;BME280;3249;42.690;23.260;2023-02-23T06:00:45;94272.44;;;3.49;100.00
6433;BME280;3249;42.690;23.260;2023-02-23T06:03:14;94276.88;;;3.70;100.00
6433;BME280;3249;42.690;23.260;2023-02-23T06:05:48;94275.31;;;3.83;100.00
6433;BME280;3249;42.690;23.260;2023-02-23T06:08:21;94273.34;;;3.71;100.00
6433;BME280;3249;42.690;23.260;2023-02-23T06:10:51;94267.25;;;3.80;100.00
6433;BME280;3249;42.690;23.260;2023-02-23T06:13:22;94255.81;;;3.90;100.00
6433;BME280;3249;42.690;23.260;2023-02-23T06:15:52;94285.19;;;4.36;100.00
6433;BME280;3249;42.690;23.260;2023-02-23T06:18:21;94283.59;;;4.50;100.00
6433;BME280;3249;42.690;23.260;2023-02-23T06:20:50;94285.31;;;4.64;100.00
6433;BME280;3249;42.690;23.260;2023-02-23T06:23:25;94294.84;;;4.76;100.00
6433;BME280;3249;42.690;23.260;2023-02-23T06:25:54;94289.69;;;4.70;100.00
6433;BME280;3249;42.690;23.260;2023-02-23T06:28:25;94292.81;;;4.86;100.00
6433;BME280;3249;42.690;23.260;2023-02-23T06:30:55;94295.75;;;4.69;100.00
6433;BME280;3249;42.690;23.260;2023-02-23T06:33:24;94296.94;;;4.87;100.00
6433;BME280;3249;42.690;23.260;2023-02-23T06:35:55;94311.00;;;5.19;100.00
6433;BME280;3249;42.690;23.260;2023-02-23T06:38:27;94315.59;;;5.30;100.00
6433;BME280;3249;42.690;23.260;2023-02-23T06:40:56;94307.53;;;5.27;100.00
6433;BME280;3249;42.690;23.260;2023-02-23T06:43:25;94314.97;;;5.49;100.00
6433;BME280;3249;42.690;23.260;2023-02-23T06:45:54;94304.31;;;5.67;100.00
6433;BME280;3249;42.690;23.260;2023-02-23T06:48:23;94313.53;;;5.89;100.00
6433;BME280;3249;42.690;23.260;2023-02-23T06:50:52;94314.22;;;6.04;100.00
6433;BME280;3249;42.690;23.260;2023-02-23T06:53:26;94304.00;;;6.04;100.00
6433;BME280;3249;42.690;23.260;2023-02-23T06:55:56;94306.81;;;6.15;100.00
6433;BME280;3249;42.690;23.260;2023-02-23T06:58:25;94296.91;;;5.99;100.00
6433;BME280;3249;42.690;23.260;2023-02-23T07:00:56;94319.81;;;6.20;100.00
6433;BME280;3249;42.690;23.260;2023-02-23T07:03:25;94303.06;;;6.11;100.00
6433;BME280;3249;42.690;23.260;2023-02-23T07:05:54;94297.53;;;6.42;100.00
6433;BME280;3249;42.690;23.260;2023-02-23T07:08:27;94298.19;;;6.57;100.00
6433;BME280;3249;42.690;23.260;2023-02-23T07:11:05;94318.66;;;6.63;100.00
6433;BME280;3249;42.690;23.260;2023-02-23T07:13:34;94296.19;;;6.59;100.00
6433;BME280;3249;42.690;23.260;2023-02-23T07:16:05;94310.47;;;6.87;100.00
6433;BME280;3249;42.690;23.260;2023-02-23T07:18:34;94314.25;;;7.04;100.00
6433;BME280;3249;42.690;23.260;2023-02-23T07:21:04;94328.47;;;7.20;100.00
6433;BME280;3249;42.690;23.260;2023-02-23T07:23:35;94320.38;;;7.23;100.00
6433;BME280;3249;42.690;23.260;2023-02-23T07:26:05;94312.50;;;7.11;100.00
6433;BME280;3249;42.690;23.260;2023-02-23T07:28:34;94295.59;;;7.23;100.00
6433;BME280;3249;42.690;23.260;2023-02-23T07:31:05;94311.94;;;7.29;100.00
6433;BME280;3249;42.690;23.260;2023-02-23T07:33:52;94273.09;;;6.86;100.00
6433;BME280;3249;42.690;23.260;2023-02-23T07:36:24;94307.00;;;7.08;100.00
6433;BME280;3249;42.690;23.260;2023-02-23T07:38:55;94304.56;;;6.93;100.00
6433;BME280;3249;42.690;23.260;2023-02-23T07:41:24;94310.19;;;7.36;100.00
6433;BME280;3249;42.690;23.260;2023-02-23T07:43:54;94307.63;;;7.29;100.00
6433;BME280;3249;42.690;23.260;2023-02-23T07:46:24;94317.50;;;7.58;100.00
6433;BME280;3249;42.690;23.260;2023-02-23T07:48:54;94283.00;;;7.67;100.00
6433;BME280;3249;42.690;23.260;2023-02-23T07:51:23;94275.13;;;7.69;100.00
6433;BME280;3249;42.690;23.260;2023-02-23T07:53:55;94295.59;;;7.75;100.00
6433;BME280;3249;42.690;23.260;2023-02-23T07:56:25;94289.31;;;7.65;100.00
6433;BME280;3249;42.690;23.260;2023-02-23T07:58:59;94177.44;;;6.81;100.00
6433;BME280;3249;42.690;23.260;2023-02-23T08:01:32;94296.78;;;7.73;100.00
6433;BME280;3249;42.690;23.260;2023-02-23T08:04:02;94298.53;;;7.98;100.00
6433;BME280;3249;42.690;23.260;2023-02-23T08:06:32;94304.63;;;8.10;100.00
6433;BME280;3249;42.690;23.260;2023-02-23T08:09:04;94301.50;;;8.21;100.00
6433;BME280;3249;42.690;23.260;2023-02-23T08:11:33;94301.25;;;8.42;99.27
6433;BME280;3249;42.690;23.260;2023-02-23T08:14:03;94292.78;;;8.29;100.00
6433;BME280;3249;42.690;23.260;2023-02-23T08:16:32;94300.63;;;8.53;99.34
6433;BME280;3249;42.690;23.260;2023-02-23T08:19:02;94308.66;;;8.63;98.40
6433;BME280;3249;42.690;23.260;2023-02-23T08:21:31;94293.25;;;8.63;97.14
6433;BME280;3249;42.690;23.260;2023-02-23T08:24:04;94306.47;;;8.73;95.33
6433;BME280;3249;42.690;23.260;2023-02-23T08:26:34;94280.06;;;8.60;95.45
6433;BME280;3249;42.690;23.260;2023-02-23T08:29:04;94305.16;;;9.02;92.52
6433;BME280;3249;42.690;23.260;2023-02-23T08:31:33;94313.09;;;9.25;91.31
6433;BME280;3249;42.690;23.260;2023-02-23T08:34:02;94318.50;;;9.10;91.65
6433;BME280;3249;42.690;23.260;2023-02-23T08:36:32;94307.00;;;8.82;93.11
6433;BME280;3249;42.690;23.260;2023-02-23T08:39:03;94313.94;;;8.81;93.20
6433;BME280;3249;42.690;23.260;2023-02-23T08:41:35;94307.84;;;9.13;91.16
6433;BME280;3249;42.690;23.260;2023-02-23T08:44:04;94309.06;;;9.35;89.34
6433;BME280;3249;42.690;23.260;2023-02-23T08:46:34;94312.06;;;9.64;87.24
6433;BME280;3249;42.690;23.260;2023-02-23T08:49:03;94311.88;;;9.58;86.88
6433;BME280;3249;42.690;23.260;2023-02-23T08:51:35;94316.09;;;9.78;84.60
6433;BME280;3249;42.690;23.260;2023-02-23T08:54:09;94299.34;;;9.93;83.34
6433;BME280;3249;42.690;23.260;2023-02-23T08:56:40;94284.16;;;9.92;81.51
6433;BME280;3249;42.690;23.260;2023-02-23T08:59:11;94300.56;;;10.15;81.56
6433;BME280;3249;42.690;23.260;2023-02-23T09:01:40;94301.66;;;10.26;78.13
6433;BME280;3249;42.690;23.260;2023-02-23T09:04:09;94320.09;;;10.41;76.29
6433;BME280;3249;42.690;23.260;2023-02-23T09:06:39;94298.16;;;10.38;76.10
6433;BME280;3249;42.690;23.260;2023-02-23T09:09:11;94315.88;;;10.64;75.10
6433;BME280;3249;42.690;23.260;2023-02-23T09:11:41;94314.38;;;10.75;73.95
6433;BME280;3249;42.690;23.260;2023-02-23T09:14:11;94300.00;;;10.67;74.05
6433;BME280;3249;42.690;23.260;2023-02-23T09:16:40;94308.50;;;10.86;73.85
6433;BME280;3249;42.690;23.260;2023-02-23T09:19:10;94301.91;;;10.90;72.81
6433;BME280;3249;42.690;23.260;2023-02-23T09:21:39;94301.06;;;10.96;71.02
6433;BME280;3249;42.690;23.260;2023-02-23T09:24:11;94305.75;;;10.69;72.75
6433;BME280;3249;42.690;23.260;2023-02-23T09:26:41;94304.34;;;10.85;70.94
6433;BME280;3249;42.690;23.260;2023-02-23T09:29:10;94317.34;;;11.08;70.13
6433;BME280;3249;42.690;23.260;2023-02-23T09:31:42;94313.16;;;11.25;69.05
6433;BME280;3249;42.690;23.260;2023-02-23T09:34:12;94299.34;;;11.19;68.26
6433;BME280;3249;42.690;23.260;2023-02-23T09:36:41;94314.78;;;11.37;68.09
6433;BME280;3249;42.690;23.260;2023-02-23T09:39:12;94308.06;;;11.48;67.54
6433;BME280;3249;42.690;23.260;2023-02-23T09:42:02;94313.13;;;11.54;64.90
6433;BME280;3249;42.690;23.260;2023-02-23T09:44:41;94321.59;;;11.73;62.98
6433;BME280;3249;42.690;23.260;2023-02-23T09:47:25;94313.44;;;11.76;63.00
6433;BME280;3249;42.690;23.260;2023-02-23T09:49:58;94301.91;;;11.08;66.32
6433;BME280;3249;42.690;23.260;2023-02-23T09:52:37;94316.00;;;11.35;65.72
6433;BME280;3249;42.690;23.260;2023-02-23T09:55:12;94296.75;;;11.49;64.93
6433;BME280;3249;42.690;23.260;2023-02-23T09:57:44;94299.97;;;11.74;63.46
6433;BME280;3249;42.690;23.260;2023-02-23T10:00:17;94302.47;;;11.92;61.63
6433;BME280;3249;42.690;23.260;2023-02-23T10:03:02;94309.31;;;12.09;59.58
6433;BME280;3249;42.690;23.260;2023-02-23T10:05:39;94306.69;;;11.63;61.61
6433;BME280;3249;42.690;23.260;2023-02-23T10:08:18;94286.06;;;11.34;63.87
6433;BME280;3249;42.690;23.260;2023-02-23T10:10:58;94314.22;;;11.76;62.15
6433;BME280;3249;42.690;23.260;2023-02-23T10:13:37;94297.09;;;12.05;59.33
6433;BME280;3249;42.690;23.260;2023-02-23T10:16:17;94299.13;;;12.26;57.83
6433;BME280;3249;42.690;23.260;2023-02-23T10:18:55;94268.25;;;12.08;57.65
6433;BME280;3249;42.690;23.260;2023-02-23T10:21:33;94299.31;;;12.13;58.01
6433;BME280;3249;42.690;23.260;2023-02-23T10:24:08;94284.72;;;12.41;56.73
6433;BME280;3249;42.690;23.260;2023-02-23T10:26:45;94292.84;;;12.73;54.34
6433;BME280;3249;42.690;23.260;2023-02-23T10:29:22;94290.28;;;12.73;53.82
6433;BME280;3249;42.690;23.260;2023-02-23T10:31:57;94283.91;;;12.64;53.83
6433;BME280;3249;42.690;23.260;2023-02-23T10:34:28;94280.81;;;12.78;52.63
6433;BME280;3249;42.690;23.260;2023-02-23T10:37:00;94285.97;;;12.90;51.71
6433;BME280;3249;42.690;23.260;2023-02-23T10:39:30;94263.72;;;12.89;51.00
6433;BME280;3249;42.690;23.260;2023-02-23T10:42:06;94270.66;;;13.11;50.76
6433;BME280;3249;42.690;23.260;2023-02-23T10:44:37;94274.06;;;13.28;49.52
6433;BME280;3249;42.690;23.260;2023-02-23T10:47:10;94273.44;;;13.38;49.33
6433;BME280;3249;42.690;23.260;2023-02-23T10:49:46;94275.06;;;13.27;49.67
6433;BME280;3249;42.690;23.260;2023-02-23T10:52:20;94267.09;;;13.45;48.55
6433;BME280;3249;42.690;23.260;2023-02-23T10:54:50;94263.66;;;13.56;48.15
6433;BME280;3249;42.690;23.260;2023-02-23T10:57:25;94258.84;;;13.32;48.46
6433;BME280;3249;42.690;23.260;2023-02-23T11:00:21;94241.47;;;13.44;46.90
6433;BME280;3249;42.690;23.260;2023-02-23T11:03:01;94222.69;;;13.65;46.17
6433;BME280;3249;42.690;23.260;2023-02-23T11:05:43;94255.25;;;13.82;46.19
6433;BME280;3249;42.690;23.260;2023-02-23T11:08:21;94237.81;;;13.73;46.86
6433;BME280;3249;42.690;23.260;2023-02-23T11:10:58;94236.16;;;13.67;46.81
6433;BME280;3249;42.690;23.260;2023-02-23T11:13:34;94230.50;;;13.70;45.87
6433;BME280;3249;42.690;23.260;2023-02-23T11:16:07;94240.00;;;14.19;44.50
6433;BME280;3249;42.690;23.260;2023-02-23T11:18:40;94241.56;;;14.20;44.25
6433;BME280;3249;42.690;23.260;2023-02-23T11:21:12;94218.75;;;14.34;43.79
6433;BME280;3249;42.690;23.260;2023-02-23T11:23:41;94237.31;;;14.09;44.34
6433;BME280;3249;42.690;23.260;2023-02-23T11:26:28;94232.72;;;14.33;44.24
6433;BME280;3249;42.690;23.260;2023-02-23T11:29:02;94232.31;;;14.41;43.85
6433;BME280;3249;42.690;23.260;2023-02-23T11:31:36;94220.47;;;14.28;44.26
6433;BME280;3249;42.690;23.260;2023-02-23T11:34:06;94187.97;;;13.99;44.27
6433;BME280;3249;42.690;23.260;2023-02-23T11:36:36;94225.59;;;14.07;43.75
6433;BME280;3249;42.690;23.260;2023-02-23T11:39:17;94222.88;;;14.13;43.74
6433;BME280;3249;42.690;23.260;2023-02-23T11:42:05;94204.50;;;14.15;44.27
6433;BME280;3249;42.690;23.260;2023-02-23T11:44:49;94204.75;;;14.13;43.74
6433;BME280;3249;42.690;23.260;2023-02-23T11:47:20;94215.88;;;14.14;43.44
6433;BME280;3249;42.690;23.260;2023-02-23T11:49:52;94213.28;;;14.30;43.48
6433;BME280;3249;42.690;23.260;2023-02-23T11:52:24;94217.25;;;14.59;42.37
6433;BME280;3249;42.690;23.260;2023-02-23T11:54:55;94211.84;;;14.87;41.11
6433;BME280;3249;42.690;23.260;2023-02-23T11:57:28;94205.50;;;14.73;41.30
6433;BME280;3249;42.690;23.260;2023-02-23T12:00:09;94203.72;;;15.00;41.64
6433;BME280;3249;42.690;23.260;2023-02-23T12:02:49;94207.84;;;15.28;41.03
6433;BME280;3249;42.690;23.260;2023-02-23T12:05:27;94209.13;;;15.52;40.12
6433;BME280;3249;42.690;23.260;2023-02-23T12:08:01;94197.88;;;15.41;40.30
6433;BME280;3249;42.690;23.260;2023-02-23T12:10:37;94184.47;;;15.49;40.24
6433;BME280;3249;42.690;23.260;2023-02-23T12:13:18;94204.59;;;15.69;40.51
6433;BME280;3249;42.690;23.260;2023-02-23T12:15:55;94201.50;;;15.72;39.77
6433;BME280;3249;42.690;23.260;2023-02-23T12:18:35;94201.09;;;15.53;39.28
6433;BME280;3249;42.690;23.260;2023-02-23T12:21:23;94198.09;;;15.08;39.85
6433;BME280;3249;42.690;23.260;2023-02-23T12:24:04;94197.09;;;14.88;40.15
6433;BME280;3249;42.690;23.260;2023-02-23T12:26:42;94196.75;;;15.06;40.27
6433;BME280;3249;42.690;23.260;2023-02-23T12:29:20;94186.00;;;15.19;39.87
6433;BME280;3249;42.690;23.260;2023-02-23T12:32:00;94191.22;;;15.50;39.31
6433;BME280;3249;42.690;23.260;2023-02-23T12:34:40;94187.41;;;15.58;38.79
6433;BME280;3249;42.690;23.260;2023-02-23T12:37:22;94188.25;;;15.68;38.73
6433;BME280;3249;42.690;23.260;2023-02-23T12:40:12;94184.63;;;15.69;38.65
6433;BME280;3249;42.690;23.260;2023-02-23T12:42:51;94187.13;;;15.59;38.90
6433;BME280;3249;42.690;23.260;2023-02-23T12:45:28;94192.38;;;15.64;38.33
6433;BME280;3249;42.690;23.260;2023-02-23T12:48:13;94183.88;;;15.42;39.12
6433;BME280;3249;42.690;23.260;2023-02-23T12:50:54;94195.56;;;15.76;37.92
6433;BME280;3249;42.690;23.260;2023-02-23T12:53:42;94145.91;;;15.63;37.35
6433;BME280;3249;42.690;23.260;2023-02-23T12:59:24;94174.13;;;15.91;37.23
6433;BME280;3249;42.690;23.260;2023-02-23T13:01:58;94189.16;;;15.89;37.43
6433;BME280;3249;42.690;23.260;2023-02-23T13:04:42;94165.56;;;15.95;37.01
6433;BME280;3249;42.690;23.260;2023-02-23T13:07:19;94178.56;;;15.59;37.36
6433;BME280;3249;42.690;23.260;2023-02-23T13:10:04;94175.19;;;15.27;38.14
6433;BME280;3249;42.690;23.260;2023-02-23T13:12:46;94179.69;;;15.36;37.99
6433;BME280;3249;42.690;23.260;2023-02-23T13:15:35;94179.72;;;15.41;38.56
6433;BME280;3249;42.690;23.260;2023-02-23T13:18:11;94177.13;;;15.41;38.40
6433;BME280;3249;42.690;23.260;2023-02-23T13:20:49;94145.34;;;15.24;38.26
6433;BME280;3249;42.690;23.260;2023-02-23T13:23:30;94161.38;;;15.21;38.97
6433;BME280;3249;42.690;23.260;2023-02-23T13:26:09;94168.88;;;15.44;39.60
6433;BME280;3249;42.690;23.260;2023-02-23T13:28:49;94168.25;;;15.69;39.13
6433;BME280;3249;42.690;23.260;2023-02-23T13:31:24;94170.69;;;15.85;38.55
6433;BME280;3249;42.690;23.260;2023-02-23T13:33:57;94155.59;;;15.77;38.84
6433;BME280;3249;42.690;23.260;2023-02-23T13:36:34;94166.22;;;15.76;39.04
6433;BME280;3249;42.690;23.260;2023-02-23T13:39:20;94164.41;;;15.76;39.02
6433;BME280;3249;42.690;23.260;2023-02-23T13:42:02;94126.69;;;15.59;39.07
6433;BME280;3249;42.690;23.260;2023-02-23T13:44:42;94168.38;;;15.89;39.01
6433;BME280;3249;42.690;23.260;2023-02-23T13:47:20;94168.72;;;16.02;39.14
6433;BME280;3249;42.690;23.260;2023-02-23T13:49:57;94175.41;;;15.88;38.72
6433;BME280;3249;42.690;23.260;2023-02-23T13:52:45;94159.84;;;15.93;38.57
6433;BME280;3249;42.690;23.260;2023-02-23T13:55:33;94171.56;;;16.01;38.54
6433;BME280;3249;42.690;23.260;2023-02-23T13:58:11;94172.84;;;15.98;38.83
6433;BME280;3249;42.690;23.260;2023-02-23T14:00:51;94173.34;;;15.95;38.42